TDCF/DCF METAR and TAF weather

Enter ICAO airport designator
Station Type Date Time Source
TDCF METAR 2021/03/09 11:00 UTC NOAA

TDCF 091100Z 13003KT 9999 -SHRA BKN016 25/20 Q1015


Station Type Date Time Source
TDCF Decoded METAR 2021/03/09 11:00 UTC NOAA

Canefield Airport, Dominica (TDCF) 15-32N 061-24W 5M
Mar 09, 2021 - 06:00 AM EST / 2021.03.09 1100 UTC
Wind: from the SE (130 degrees) at 3 MPH (3 KT):0
Visibility: greater than 7 mile(s):0
Sky conditions: mostly cloudy
Weather: light rain showers
Temperature: 77 F (25 C)
Dew Point: 68 F (20 C)
Relative Humidity: 73%
Pressure (altimeter): 29.97 in. Hg (1015 hPa)
ob: TDCF 091100Z 13003KT 9999 -SHRA BKN016 25/20 Q1015
cycle: 11

Station Type Date Time Source
TDCF TAF 2012/05/01 18:15 UTC NOAA

TAF TDCF 011600Z 0118/0218 110010KT 9999 SCT018 BKN030
TEMPO 0118/0206 6000 SHRA BKN014 BKN070

Example: see airport list